sensor_id;sensor_type;location;lat;lon;timestamp;pressure;altitude;pressure_sealevel;temperature;humidity
79752;BME280;69234;47.446;21.636;2023-07-09T00:00:11;100981.72;;;15.72;79.06
79752;BME280;69234;47.446;21.636;2023-07-09T00:00:44;100967.91;;;15.65;78.79
79752;BME280;69234;47.446;21.636;2023-07-09T00:01:18;100976.66;;;15.69;78.86
79752;BME280;69234;47.446;21.636;2023-07-09T00:01:50;100979.56;;;15.76;79.27
79752;BME280;69234;47.446;21.636;2023-07-09T00:02:23;100981.44;;;15.75;79.83
79752;BME280;69234;47.446;21.636;2023-07-09T00:02:54;100975.34;;;15.73;79.04
79752;BME280;69234;47.446;21.636;2023-07-09T00:03:25;100972.34;;;15.76;78.84
79752;BME280;69234;47.446;21.636;2023-07-09T00:03:56;100981.44;;;15.75;78.85
79752;BME280;69234;47.446;21.636;2023-07-09T00:04:27;100970.06;;;15.72;79.60
79752;BME280;69234;47.446;21.636;2023-07-09T00:05:02;100977.19;;;15.73;79.32
79752;BME280;69234;47.446;21.636;2023-07-09T00:05:33;100979.75;;;15.74;79.31
79752;BME280;69234;47.446;21.636;2023-07-09T00:06:04;100977.19;;;15.73;79.16
79752;BME280;69234;47.446;21.636;2023-07-09T00:06:39;100982.44;;;15.74;80.36
79752;BME280;69234;47.446;21.636;2023-07-09T00:07:30;100980.75;;;15.73;79.13
79752;BME280;69234;47.446;21.636;2023-07-09T00:08:02;100981.06;;;15.70;79.59
79752;BME280;69234;47.446;21.636;2023-07-09T00:08:33;100982.91;;;15.69;79.09
79752;BME280;69234;47.446;21.636;2023-07-09T00:09:04;100976.94;;;15.66;79.25
79752;BME280;69234;47.446;21.636;2023-07-09T00:09:35;100983.88;;;15.68;80.15
79752;BME280;69234;47.446;21.636;2023-07-09T00:10:17;100980.88;;;15.72;80.35
79752;BME280;69234;47.446;21.636;2023-07-09T00:10:49;100989.19;;;15.70;80.46
79752;BME280;69234;47.446;21.636;2023-07-09T00:11:20;100972.47;;;15.65;79.45
79752;BME280;69234;47.446;21.636;2023-07-09T00:11:51;100974.63;;;15.71;80.18
79752;BME280;69234;47.446;21.636;2023-07-09T00:12:22;100970.22;;;15.70;80.30
79752;BME280;69234;47.446;21.636;2023-07-09T00:12:54;100979.19;;;15.71;79.27
79752;BME280;69234;47.446;21.636;2023-07-09T00:13:27;100962.66;;;15.64;79.87
79752;BME280;69234;47.446;21.636;2023-07-09T00:13:58;100978.72;;;15.75;79.32
79752;BME280;69234;47.446;21.636;2023-07-09T00:14:29;100982.44;;;15.74;79.58
79752;BME280;69234;47.446;21.636;2023-07-09T00:15:00;100963.94;;;15.69;79.38
79752;BME280;69234;47.446;21.636;2023-07-09T00:15:31;100982.44;;;15.74;79.98
79752;BME280;69234;47.446;21.636;2023-07-09T00:16:16;100976.78;;;15.67;80.47
79752;BME280;69234;47.446;21.636;2023-07-09T00:16:49;100979.75;;;15.74;79.61
79752;BME280;69234;47.446;21.636;2023-07-09T00:17:31;100987.72;;;15.76;80.00
79752;BME280;69234;47.446;21.636;2023-07-09T00:18:02;100968.06;;;15.64;79.59
79752;BME280;69234;47.446;21.636;2023-07-09T00:18:33;100978.34;;;15.70;80.34
79752;BME280;69234;47.446;21.636;2023-07-09T00:19:12;100986.31;;;15.72;80.58
79752;BME280;69234;47.446;21.636;2023-07-09T00:19:49;100968.06;;;15.64;80.40
79752;BME280;69234;47.446;21.636;2023-07-09T00:20:21;100989.00;;;15.72;80.46
79752;BME280;69234;47.446;21.636;2023-07-09T00:20:52;100976.94;;;15.66;80.44
79752;BME280;69234;47.446;21.636;2023-07-09T00:21:23;100984.06;;;15.67;80.21
79752;BME280;69234;47.446;21.636;2023-07-09T00:21:54;100984.91;;;15.67;80.79
79752;BME280;69234;47.446;21.636;2023-07-09T00:22:25;100971.63;;;15.64;80.70
79752;BME280;69234;47.446;21.636;2023-07-09T00:22:59;100984.47;;;15.62;80.64
79752;BME280;69234;47.446;21.636;2023-07-09T00:23:30;100966.97;;;15.57;80.82
79752;BME280;69234;47.446;21.636;2023-07-09T00:24:01;100971.91;;;15.61;80.10
79752;BME280;69234;47.446;21.636;2023-07-09T00:24:35;100982.63;;;15.63;79.93
79752;BME280;69234;47.446;21.636;2023-07-09T00:25:09;100974.38;;;15.55;80.25
79752;BME280;69234;47.446;21.636;2023-07-09T00:25:44;100981.22;;;15.59;80.12
79752;BME280;69234;47.446;21.636;2023-07-09T00:26:17;100980.59;;;15.65;80.04
79752;BME280;69234;47.446;21.636;2023-07-09T00:26:51;100987.78;;;15.66;79.52
79752;BME280;69234;47.446;21.636;2023-07-09T00:27:27;100983.03;;;15.68;79.76
79752;BME280;69234;47.446;21.636;2023-07-09T00:27:59;100987.78;;;15.66;80.41
79752;BME280;69234;47.446;21.636;2023-07-09T00:28:30;100988.72;;;15.65;79.91
79752;BME280;69234;47.446;21.636;2023-07-09T00:29:01;100984.31;;;15.64;80.83
79752;BME280;69234;47.446;21.636;2023-07-09T00:29:32;100980.03;;;15.61;79.86
79752;BME280;69234;47.446;21.636;2023-07-09T00:30:03;100988.03;;;15.63;80.80
79752;BME280;69234;47.446;21.636;2023-07-09T00:30:34;100986.47;;;15.60;79.87
79752;BME280;69234;47.446;21.636;2023-07-09T00:31:11;100985.31;;;15.63;80.65
79752;BME280;69234;47.446;21.636;2023-07-09T00:31:44;100976.78;;;15.58;80.62
79752;BME280;69234;47.446;21.636;2023-07-09T00:32:18;100985.47;;;15.61;79.63
79752;BME280;69234;47.446;21.636;2023-07-09T00:32:51;100976.78;;;15.58;79.79
79752;BME280;69234;47.446;21.636;2023-07-09T00:33:23;100990.88;;;15.61;79.82
79752;BME280;69234;47.446;21.636;2023-07-09T00:34:02;100985.91;;;15.57;80.29
79752;BME280;69234;47.446;21.636;2023-07-09T00:34:33;100977.78;;;15.57;79.80
79752;BME280;69234;47.446;21.636;2023-07-09T00:35:05;100988.63;;;15.57;80.00
79752;BME280;69234;47.446;21.636;2023-07-09T00:35:36;100985.75;;;15.58;79.76
79752;BME280;69234;47.446;21.636;2023-07-09T00:36:16;100986.91;;;15.56;80.64
79752;BME280;69234;47.446;21.636;2023-07-09T00:36:47;100975.66;;;15.51;79.56
79752;BME280;69234;47.446;21.636;2023-07-09T00:37:24;100983.50;;;15.54;79.62
79752;BME280;69234;47.446;21.636;2023-07-09T00:37:58;100983.50;;;15.54;79.80
79752;BME280;69234;47.446;21.636;2023-07-09T00:38:31;100973.81;;;15.51;80.93
79752;BME280;69234;47.446;21.636;2023-07-09T00:39:21;100978.66;;;15.48;80.74
79752;BME280;69234;47.446;21.636;2023-07-09T00:39:52;100963.03;;;15.41;79.94
79752;BME280;69234;47.446;21.636;2023-07-09T00:40:23;100968.44;;;15.41;80.51
79752;BME280;69234;47.446;21.636;2023-07-09T00:41:33;100967.91;;;15.38;79.65
79752;BME280;69234;47.446;21.636;2023-07-09T00:42:06;100978.81;;;15.46;80.79
79752;BME280;69234;47.446;21.636;2023-07-09T00:42:38;100982.22;;;15.48;79.55
79752;BME280;69234;47.446;21.636;2023-07-09T00:43:16;100979.13;;;15.43;79.57
79752;BME280;69234;47.446;21.636;2023-07-09T00:43:49;100981.38;;;15.48;79.88
79752;BME280;69234;47.446;21.636;2023-07-09T00:44:54;100990.50;;;15.46;79.62
79752;BME280;69234;47.446;21.636;2023-07-09T00:45:27;100973.16;;;15.39;79.46
79752;BME280;69234;47.446;21.636;2023-07-09T00:48:16;100972.28;;;15.39;79.78
79752;BME280;69234;47.446;21.636;2023-07-09T00:48:52;100979.56;;;15.38;79.27
79752;BME280;69234;47.446;21.636;2023-07-09T00:49:39;100973.72;;;15.33;80.56
79752;BME280;69234;47.446;21.636;2023-07-09T00:51:16;100974.00;;;15.40;80.62
79752;BME280;69234;47.446;21.636;2023-07-09T00:51:48;100975.13;;;15.37;80.36
79752;BME280;69234;47.446;21.636;2023-07-09T00:52:37;100973.00;;;15.41;81.27
79752;BME280;69234;47.446;21.636;2023-07-09T00:53:30;100976.16;;;15.36;80.99
79752;BME280;69234;47.446;21.636;2023-07-09T00:54:22;100979.56;;;15.38;81.37
79752;BME280;69234;47.446;21.636;2023-07-09T00:54:55;100971.75;;;15.35;81.00
79752;BME280;69234;47.446;21.636;2023-07-09T00:55:31;100973.44;;;15.36;80.76
79752;BME280;69234;47.446;21.636;2023-07-09T00:56:08;100988.66;;;15.37;81.67
79752;BME280;69234;47.446;21.636;2023-07-09T00:56:45;100979.88;;;15.35;81.22
79752;BME280;69234;47.446;21.636;2023-07-09T00:57:24;100976.16;;;15.36;80.59
79752;BME280;69234;47.446;21.636;2023-07-09T00:58:03;100973.03;;;15.31;81.74
79752;BME280;69234;47.446;21.636;2023-07-09T00:58:38;100972.47;;;15.28;80.68
79752;BME280;69234;47.446;21.636;2023-07-09T00:59:15;100979.31;;;15.32;80.38
79752;BME280;69234;47.446;21.636;2023-07-09T01:00:00;100970.63;;;15.28;81.03
79752;BME280;69234;47.446;21.636;2023-07-09T01:00:45;100960.38;;;15.22;80.49
79752;BME280;69234;47.446;21.636;2023-07-09T01:01:18;100974.19;;;15.29;81.76
79752;BME280;69234;47.446;21.636;2023-07-09T01:01:51;100964.78;;;15.23;81.04
79752;BME280;69234;47.446;21.636;2023-07-09T01:02:23;100972.47;;;15.28;81.32
79752;BME280;69234;47.446;21.636;2023-07-09T01:02:54;100966.50;;;15.24;81.89
79752;BME280;69234;47.446;21.636;2023-07-09T01:03:34;100973.19;;;15.20;81.97
79752;BME280;69234;47.446;21.636;2023-07-09T01:04:05;100965.69;;;15.14;81.72
79752;BME280;69234;47.446;21.636;2023-07-09T01:04:37;100975.22;;;15.18;81.99
79752;BME280;69234;47.446;21.636;2023-07-09T01:05:10;100975.91;;;15.20;81.43
79752;BME280;69234;47.446;21.636;2023-07-09T01:05:43;100957.69;;;15.12;81.09
79752;BME280;69234;47.446;21.636;2023-07-09T01:06:22;100975.22;;;15.18;81.22
79752;BME280;69234;47.446;21.636;2023-07-09T01:06:56;100968.38;;;15.14;81.88
79752;BME280;69234;47.446;21.636;2023-07-09T01:07:30;100973.47;;;15.17;81.37
79752;BME280;69234;47.446;21.636;2023-07-09T01:08:01;100965.97;;;15.11;81.15
79752;BME280;69234;47.446;21.636;2023-07-09T01:08:35;100962.25;;;15.12;81.75
79752;BME280;69234;47.446;21.636;2023-07-09T01:09:08;100967.50;;;15.13;81.20
79752;BME280;69234;47.446;21.636;2023-07-09T01:09:39;100968.38;;;15.14;81.43
79752;BME280;69234;47.446;21.636;2023-07-09T01:10:14;100971.09;;;15.14;82.14
79752;BME280;69234;47.446;21.636;2023-07-09T01:10:46;100965.81;;;15.12;81.90
79752;BME280;69234;47.446;21.636;2023-07-09T01:11:21;100962.69;;;15.07;81.63
79752;BME280;69234;47.446;21.636;2023-07-09T01:11:53;100975.63;;;15.13;82.36
79752;BME280;69234;47.446;21.636;2023-07-09T01:12:27;100970.38;;;15.12;81.90
79752;BME280;69234;47.446;21.636;2023-07-09T01:12:58;100971.50;;;15.09;81.71
79752;BME280;69234;47.446;21.636;2023-07-09T01:13:31;100967.94;;;15.09;82.44
79752;BME280;69234;47.446;21.636;2023-07-09T01:14:09;100968.97;;;15.08;81.84
79752;BME280;69234;47.446;21.636;2023-07-09T01:14:40;100971.66;;;15.08;81.85
79752;BME280;69234;47.446;21.636;2023-07-09T01:15:11;100972.50;;;15.08;82.62
79752;BME280;69234;47.446;21.636;2023-07-09T01:15:43;100960.56;;;15.01;82.17
79752;BME280;69234;47.446;21.636;2023-07-09T01:16:14;100975.38;;;15.07;81.39
79752;BME280;69234;47.446;21.636;2023-07-09T01:17:12;100967.38;;;15.05;81.37
79752;BME280;69234;47.446;21.636;2023-07-09T01:17:43;100964.13;;;15.02;81.48
79752;BME280;69234;47.446;21.636;2023-07-09T01:18:17;100957.44;;;14.96;82.37
79752;BME280;69234;47.446;21.636;2023-07-09T01:18:47;100966.81;;;15.02;82.77
79752;BME280;69234;47.446;21.636;2023-07-09T01:19:22;100966.09;;;14.99;81.54
79752;BME280;69234;47.446;21.636;2023-07-09T01:19:56;100967.13;;;14.98;81.44
79752;BME280;69234;47.446;21.636;2023-07-09T01:20:27;100973.38;;;14.99;82.06
79752;BME280;69234;47.446;21.636;2023-07-09T01:21:08;100970.81;;;14.97;81.99
79752;BME280;69234;47.446;21.636;2023-07-09T01:21:45;100962.00;;;14.95;81.54
79752;BME280;69234;47.446;21.636;2023-07-09T01:22:19;100965.88;;;14.93;81.98
79752;BME280;69234;47.446;21.636;2023-07-09T01:22:51;100965.13;;;14.91;82.91
79752;BME280;69234;47.446;21.636;2023-07-09T01:23:25;100968.56;;;14.93;82.56
79752;BME280;69234;47.446;21.636;2023-07-09T01:23:56;100964.84;;;14.94;82.47
79752;BME280;69234;47.446;21.636;2023-07-09T01:25:00;100971.41;;;14.91;82.31
79752;BME280;69234;47.446;21.636;2023-07-09T01:25:38;100968.84;;;14.90;81.93
79752;BME280;69234;47.446;21.636;2023-07-09T01:26:24;100967.97;;;14.89;82.31
79752;BME280;69234;47.446;21.636;2023-07-09T01:26:55;100967.84;;;14.91;82.63
79752;BME280;69234;47.446;21.636;2023-07-09T01:27:48;100970.69;;;14.89;81.81
79752;BME280;69234;47.446;21.636;2023-07-09T01:28:19;100959.72;;;14.81;82.86
79752;BME280;69234;47.446;21.636;2023-07-09T01:28:53;100963.16;;;14.83;82.04
79752;BME280;69234;47.446;21.636;2023-07-09T01:29:24;100967.72;;;14.83;82.56
79752;BME280;69234;47.446;21.636;2023-07-09T01:29:57;100957.47;;;14.77;82.36
79752;BME280;69234;47.446;21.636;2023-07-09T01:30:37;100962.59;;;14.80;81.73
79752;BME280;69234;47.446;21.636;2023-07-09T01:31:09;100972.81;;;14.86;82.43
79752;BME280;69234;47.446;21.636;2023-07-09T01:31:41;100972.81;;;14.86;81.91
79752;BME280;69234;47.446;21.636;2023-07-09T01:32:15;100963.16;;;14.83;81.34
79752;BME280;69234;47.446;21.636;2023-07-09T01:32:50;100966.16;;;14.80;82.21
79752;BME280;69234;47.446;21.636;2023-07-09T01:33:22;100969.88;;;14.79;82.61
79752;BME280;69234;47.446;21.636;2023-07-09T01:33:54;100966.44;;;14.77;81.60
79752;BME280;69234;47.446;21.636;2023-07-09T01:34:24;100967.28;;;14.78;82.62
79752;BME280;69234;47.446;21.636;2023-07-09T01:34:58;100962.72;;;14.78;81.83
79752;BME280;69234;47.446;21.636;2023-07-09T01:35:36;100977.09;;;14.79;82.56
79752;BME280;69234;47.446;21.636;2023-07-09T01:36:09;100968.00;;;14.80;81.79
79752;BME280;69234;47.446;21.636;2023-07-09T01:36:40;100958.75;;;14.72;82.36
79752;BME280;69234;47.446;21.636;2023-07-09T01:37:11;100964.00;;;14.74;82.82
79752;BME280;69234;47.446;21.636;2023-07-09T01:37:44;100959.59;;;14.73;82.57
79752;BME280;69234;47.446;21.636;2023-07-09T01:38:15;100972.97;;;14.74;82.78
79752;BME280;69234;47.446;21.636;2023-07-09T01:38:47;100969.41;;;14.74;82.39
79752;BME280;69234;47.446;21.636;2023-07-09T01:39:19;100959.72;;;14.71;82.01
79752;BME280;69234;47.446;21.636;2023-07-09T01:39:52;100970.56;;;14.71;82.27
79752;BME280;69234;47.446;21.636;2023-07-09T01:40:27;100976.25;;;14.78;81.91
79752;BME280;69234;47.446;21.636;2023-07-09T01:40:59;100979.97;;;14.77;82.76
79752;BME280;69234;47.446;21.636;2023-07-09T01:41:32;100974.81;;;14.74;81.79
79752;BME280;69234;47.446;21.636;2023-07-09T01:42:05;100980.25;;;14.74;81.74
79752;BME280;69234;47.446;21.636;2023-07-09T01:42:39;100977.25;;;14.77;81.48
79752;BME280;69234;47.446;21.636;2023-07-09T01:43:10;100978.53;;;14.73;81.52
79752;BME280;69234;47.446;21.636;2023-07-09T01:43:44;100980.81;;;14.78;81.25
79752;BME280;69234;47.446;21.636;2023-07-09T01:44:15;100979.97;;;14.77;82.41
79752;BME280;69234;47.446;21.636;2023-07-09T01:44:48;100969.88;;;14.69;81.26
79752;BME280;69234;47.446;21.636;2023-07-09T01:45:21;100982.50;;;14.79;81.20
79752;BME280;69234;47.446;21.636;2023-07-09T01:45:53;100980.97;;;14.76;82.39
79752;BME280;69234;47.446;21.636;2023-07-09T01:46:28;100980.81;;;14.78;81.65
79752;BME280;69234;47.446;21.636;2023-07-09T01:46:59;100979.97;;;14.77;82.26
79752;BME280;69234;47.446;21.636;2023-07-09T01:47:32;100980.13;;;14.76;80.87
79752;BME280;69234;47.446;21.636;2023-07-09T01:48:04;100980.13;;;14.76;81.19
79752;BME280;69234;47.446;21.636;2023-07-09T01:48:35;100975.69;;;14.74;81.71
79752;BME280;69234;47.446;21.636;2023-07-09T01:49:13;100977.53;;;14.74;81.09
79752;BME280;69234;47.446;21.636;2023-07-09T01:49:45;100979.97;;;14.77;81.15
79752;BME280;69234;47.446;21.636;2023-07-09T01:50:17;100970.44;;;14.73;80.66
79752;BME280;69234;47.446;21.636;2023-07-09T01:50:49;100969.59;;;14.72;80.61
79752;BME280;69234;47.446;21.636;2023-07-09T01:51:21;100983.66;;;14.76;80.49
79752;BME280;69234;47.446;21.636;2023-07-09T01:51:55;100970.44;;;14.73;81.77
79752;BME280;69234;47.446;21.636;2023-07-09T01:52:30;100986.09;;;14.79;81.58
79752;BME280;69234;47.446;21.636;2023-07-09T01:53:02;100987.78;;;14.80;80.93
79752;BME280;69234;47.446;21.636;2023-07-09T01:53:33;100983.38;;;14.79;81.34
79752;BME280;69234;47.446;21.636;2023-07-09T01:54:06;100973.53;;;14.68;81.74
79752;BME280;69234;47.446;21.636;2023-07-09T01:54:40;100989.78;;;14.78;80.85
79752;BME280;69234;47.446;21.636;2023-07-09T01:55:13;100988.91;;;14.78;81.43
79752;BME280;69234;47.446;21.636;2023-07-09T01:55:47;100990.63;;;14.79;81.12
79752;BME280;69234;47.446;21.636;2023-07-09T01:56:18;100987.06;;;14.78;80.60
79752;BME280;69234;47.446;21.636;2023-07-09T01:56:49;100995.06;;;14.80;80.69
79752;BME280;69234;47.446;21.636;2023-07-09T01:57:23;100977.81;;;14.71;80.89
79752;BME280;69234;47.446;21.636;2023-07-09T01:57:54;100993.03;;;14.82;80.53
79752;BME280;69234;47.446;21.636;2023-07-09T01:58:25;100980.81;;;14.78;81.05
79752;BME280;69234;47.446;21.636;2023-07-09T01:58:56;100981.66;;;14.78;81.12
79752;BME280;69234;47.446;21.636;2023-07-09T01:59:32;100985.09;;;14.80;81.37
79752;BME280;69234;47.446;21.636;2023-07-09T02:00:11;100993.88;;;14.82;81.95
79752;BME280;69234;47.446;21.636;2023-07-09T02:00:47;100988.19;;;14.85;82.57
79752;BME280;69234;47.446;21.636;2023-07-09T02:01:18;100975.41;;;14.78;81.35
79752;BME280;69234;47.446;21.636;2023-07-09T02:01:50;100983.06;;;14.82;81.75
79752;BME280;69234;47.446;21.636;2023-07-09T02:02:27;100985.09;;;14.90;82.08
79752;BME280;69234;47.446;21.636;2023-07-09T02:03:00;100985.22;;;14.88;82.13
79752;BME280;69234;47.446;21.636;2023-07-09T02:03:32;100979.09;;;14.86;81.58
79752;BME280;69234;47.446;21.636;2023-07-09T02:04:03;100985.09;;;14.90;81.69
79752;BME280;69234;47.446;21.636;2023-07-09T02:04:35;100978.94;;;14.88;81.75
79752;BME280;69234;47.446;21.636;2023-07-09T02:05:07;100982.38;;;14.90;80.96
79752;BME280;69234;47.446;21.636;2023-07-09T02:05:38;100988.47;;;14.92;81.02
79752;BME280;69234;47.446;21.636;2023-07-09T02:06:09;100987.78;;;14.90;81.88
79752;BME280;69234;47.446;21.636;2023-07-09T02:06:40;100980.09;;;14.85;81.93
79752;BME280;69234;47.446;21.636;2023-07-09T02:07:10;100991.34;;;14.90;81.60
79752;BME280;69234;47.446;21.636;2023-07-09T02:07:42;100973.13;;;14.83;81.51
79752;BME280;69234;47.446;21.636;2023-07-09T02:08:12;100985.66;;;14.84;81.28
79752;BME280;69234;47.446;21.636;2023-07-09T02:08:43;100982.50;;;14.88;81.30
79752;BME280;69234;47.446;21.636;2023-07-09T02:09:14;100985.22;;;14.88;81.48
79752;BME280;69234;47.446;21.636;2023-07-09T02:09:46;100979.41;;;14.83;81.30
79752;BME280;69234;47.446;21.636;2023-07-09T02:10:17;100986.78;;;14.91;80.34
79752;BME280;69234;47.446;21.636;2023-07-09T02:10:49;100976.69;;;14.83;81.43
79752;BME280;69234;47.446;21.636;2023-07-09T02:11:20;100966.16;;;14.80;81.20
79752;BME280;69234;47.446;21.636;2023-07-09T02:11:51;100977.38;;;14.85;81.45
79752;BME280;69234;47.446;21.636;2023-07-09T02:12:22;100994.75;;;14.92;80.71
79752;BME280;69234;47.446;21.636;2023-07-09T02:12:53;100979.66;;;14.90;81.06
79752;BME280;69234;47.446;21.636;2023-07-09T02:13:24;100981.50;;;14.89;80.32
79752;BME280;69234;47.446;21.636;2023-07-09T02:13:55;100983.94;;;14.83;81.12
79752;BME280;69234;47.446;21.636;2023-07-09T02:14:26;100987.78;;;14.90;80.98
79752;BME280;69234;47.446;21.636;2023-07-09T02:14:58;100982.22;;;14.91;80.45
79752;BME280;69234;47.446;21.636;2023-07-09T02:15:28;100997.72;;;14.89;81.39
79752;BME280;69234;47.446;21.636;2023-07-09T02:16:01;100973.25;;;14.81;80.80
79752;BME280;69234;47.446;21.636;2023-07-09T02:16:32;100997.03;;;14.87;81.89
79752;BME280;69234;47.446;21.636;2023-07-09T02:17:03;100983.63;;;14.86;80.50
79752;BME280;69234;47.446;21.636;2023-07-09T02:17:34;100987.50;;;14.83;81.33
79752;BME280;69234;47.446;21.636;2023-07-09T02:18:05;101003.44;;;14.86;80.69
79752;BME280;69234;47.446;21.636;2023-07-09T02:18:35;100990.22;;;14.83;80.28
79752;BME280;69234;47.446;21.636;2023-07-09T02:19:06;100992.75;;;14.85;80.63
79752;BME280;69234;47.446;21.636;2023-07-09T02:19:39;100985.22;;;14.79;80.75
79752;BME280;69234;47.446;21.636;2023-07-09T02:20:11;100990.50;;;14.80;81.30
79752;BME280;69234;47.446;21.636;2023-07-09T02:20:42;100990.34;;;14.82;80.80
79752;BME280;69234;47.446;21.636;2023-07-09T02:21:13;101002.00;;;14.82;80.78
79752;BME280;69234;47.446;21.636;2023-07-09T02:21:44;100997.88;;;14.78;80.41
79752;BME280;69234;47.446;21.636;2023-07-09T02:22:15;100996.19;;;14.77;80.65
79752;BME280;69234;47.446;21.636;2023-07-09T02:22:49;100992.63;;;14.77;81.10
79752;BME280;69234;47.446;21.636;2023-07-09T02:23:27;100999.63;;;14.79;81.15
79752;BME280;69234;47.446;21.636;2023-07-09T02:23:58;100992.91;;;14.73;81.05
79752;BME280;69234;47.446;21.636;2023-07-09T02:24:30;101003.56;;;14.75;81.96
79752;BME280;69234;47.446;21.636;2023-07-09T02:25:02;101000.19;;;14.73;81.35
79752;BME280;69234;47.446;21.636;2023-07-09T02:25:33;100995.75;;;14.72;82.00
79752;BME280;69234;47.446;21.636;2023-07-09T02:26:04;100998.75;;;14.69;81.85
79752;BME280;69234;47.446;21.636;2023-07-09T02:26:35;100986.38;;;14.66;82.94
79752;BME280;69234;47.446;21.636;2023-07-09T02:27:09;100998.16;;;14.75;83.03
79752;BME280;69234;47.446;21.636;2023-07-09T02:27:41;100992.19;;;14.71;83.16
79752;BME280;69234;47.446;21.636;2023-07-09T02:28:12;100999.31;;;14.72;83.71
79752;BME280;69234;47.446;21.636;2023-07-09T02:28:43;100979.94;;;14.67;83.70
79752;BME280;69234;47.446;21.636;2023-07-09T02:29:14;100992.06;;;14.73;83.29
79752;BME280;69234;47.446;21.636;2023-07-09T02:29:45;100978.09;;;14.68;82.98
79752;BME280;69234;47.446;21.636;2023-07-09T02:30:16;100992.06;;;14.73;82.11
79752;BME280;69234;47.446;21.636;2023-07-09T02:30:46;100993.03;;;14.72;82.28
79752;BME280;69234;47.446;21.636;2023-07-09T02:31:17;100991.34;;;14.71;83.03
79752;BME280;69234;47.446;21.636;2023-07-09T02:31:51;100973.84;;;14.56;83.55
79752;BME280;69234;47.446;21.636;2023-07-09T02:32:25;100985.06;;;14.61;83.24
79752;BME280;69234;47.446;21.636;2023-07-09T02:32:56;100981.09;;;14.55;82.92
79752;BME280;69234;47.446;21.636;2023-07-09T02:33:28;100983.38;;;14.60;83.92
79752;BME280;69234;47.446;21.636;2023-07-09T02:34:04;100985.06;;;14.61;83.00
79752;BME280;69234;47.446;21.636;2023-07-09T02:34:35;100983.38;;;14.60;82.91
79752;BME280;69234;47.446;21.636;2023-07-09T02:35:07;100986.81;;;14.62;83.04
79752;BME280;69234;47.446;21.636;2023-07-09T02:35:38;100985.06;;;14.61;83.43
79752;BME280;69234;47.446;21.636;2023-07-09T02:36:09;100978.13;;;14.58;83.36
79752;BME280;69234;47.446;21.636;2023-07-09T02:36:40;100972.84;;;14.57;83.20
79752;BME280;69234;47.446;21.636;2023-07-09T02:37:13;100991.78;;;14.66;83.09
79752;BME280;69234;47.446;21.636;2023-07-09T02:37:47;100995.75;;;14.62;83.09
79752;BME280;69234;47.446;21.636;2023-07-09T02:38:18;100991.50;;;14.60;83.61
79752;BME280;69234;47.446;21.636;2023-07-09T02:38:51;100990.75;;;14.58;83.40
79752;BME280;69234;47.446;21.636;2023-07-09T02:39:24;100994.19;;;14.60;83.35
79752;BME280;69234;47.446;21.636;2023-07-09T02:39:55;100996.03;;;14.59;83.12
79752;BME280;69234;47.446;21.636;2023-07-09T02:40:26;100993.47;;;14.58;83.59
79752;BME280;69234;47.446;21.636;2023-07-09T02:40:57;100987.88;;;14.49;83.22
79752;BME280;69234;47.446;21.636;2023-07-09T02:41:28;100987.66;;;14.53;83.44
79752;BME280;69234;47.446;21.636;2023-07-09T02:41:59;100986.63;;;14.54;83.21
79752;BME280;69234;47.446;21.636;2023-07-09T02:42:30;100996.31;;;14.56;82.87
79752;BME280;69234;47.446;21.636;2023-07-09T02:43:02;100997.91;;;14.59;83.89
79752;BME280;69234;47.446;21.636;2023-07-09T02:43:33;100990.59;;;14.49;84.16
79752;BME280;69234;47.446;21.636;2023-07-09T02:44:04;100988.91;;;14.48;84.06
79752;BME280;69234;47.446;21.636;2023-07-09T02:44:38;100979.78;;;14.49;83.51
79752;BME280;69234;47.446;21.636;2023-07-09T02:45:11;100998.19;;;14.56;82.78
79752;BME280;69234;47.446;21.636;2023-07-09T02:45:42;100994.47;;;14.57;83.04
79752;BME280;69234;47.446;21.636;2023-07-09T02:46:13;100991.75;;;14.57;83.77
79752;BME280;69234;47.446;21.636;2023-07-09T02:46:44;101009.28;;;14.62;83.06
79752;BME280;69234;47.446;21.636;2023-07-09T02:47:16;100986.78;;;14.52;83.79
79752;BME280;69234;47.446;21.636;2023-07-09T02:47:47;100997.91;;;14.59;83.37
79752;BME280;69234;47.446;21.636;2023-07-09T02:48:18;101006.69;;;14.61;83.67
79752;BME280;69234;47.446;21.636;2023-07-09T02:48:49;100996.16;;;14.58;82.52
79752;BME280;69234;47.446;21.636;2023-07-09T02:49:22;100999.31;;;14.53;83.12
79752;BME280;69234;47.446;21.636;2023-07-09T02:49:53;101008.84;;;14.57;83.18
79752;BME280;69234;47.446;21.636;2023-07-09T02:50:24;101005.28;;;14.57;83.61
79752;BME280;69234;47.446;21.636;2023-07-09T02:50:55;101008.72;;;14.59;83.60
79752;BME280;69234;47.446;21.636;2023-07-09T02:51:26;101004.00;;;14.61;83.56
79752;BME280;69234;47.446;21.636;2023-07-09T02:51:57;101003.44;;;14.57;83.71
79752;BME280;69234;47.446;21.636;2023-07-09T02:52:28;101004.44;;;14.56;83.94
79752;BME280;69234;47.446;21.636;2023-07-09T02:52:59;100998.19;;;14.56;84.49
79752;BME280;69234;47.446;21.636;2023-07-09T02:53:30;100997.31;;;14.55;83.52
79752;BME280;69234;47.446;21.636;2023-07-09T02:54:03;101006.28;;;14.56;83.67
79752;BME280;69234;47.446;21.636;2023-07-09T02:54:34;100998.47;;;14.53;82.37
79752;BME280;69234;47.446;21.636;2023-07-09T02:55:05;101005.16;;;14.58;82.39
79752;BME280;69234;47.446;21.636;2023-07-09T02:55:36;101011.13;;;14.62;83.03
79752;BME280;69234;47.446;21.636;2023-07-09T02:56:07;101005.00;;;14.60;83.91
79752;BME280;69234;47.446;21.636;2023-07-09T02:56:38;101013.84;;;14.62;82.65